This is the latest recevied weather packets stored in our database for station/object SP9POL-3. If no packets are shown the sender has not sent any weather packets the latest 1 day(s).
| Time | Temp. | Humidity | Pressure | Rain* | Wind** | Luminosity | Snow |
|---|---|---|---|---|---|---|---|
| 1778069660 | 21.67° C | 34% | 1004.5 hPa | - | - | - | - |
| 1778067980 | 23.33° C | 31% | 1004.5 hPa | - | - | - | - |
| 1778066300 | 22.78° C | 33% | 1004.3 hPa | - | - | - | - |
| 1778064620 | 21.11° C | 34% | 1004.3 hPa | - | - | - | - |
| 1778057899 | 18.89° C | 34% | 1004.4 hPa | - | - | - | - |
| 1778056219 | 18.33° C | 36% | 1004.2 hPa | - | - | - | - |
| 1778054539 | 17.22° C | 36% | 1004 hPa | - | - | - | - |
| 1778052859 | 16.67° C | 40% | 1004.3 hPa | - | - | - | - |
| 1778051179 | 15.56° C | 44% | 1004.6 hPa | - | - | - | - |
| 1778049499 | 15° C | 50% | 1004.5 hPa | - | - | - | - |
| 1778046138 | 12.22° C | 65% | 1004.8 hPa | - | - | - | - |
| 1778044458 | 11.11° C | 77% | 1005 hPa | - | - | - | - |
| 1778042778 | 11.11° C | 83% | 1005.1 hPa | - | - | - | - |
| 1778041098 | 10.56° C | 81% | 1005 hPa | - | - | - | - |
| 1778037737 | 10.56° C | 76% | 1004.9 hPa | - | - | - | - |
| 1778034377 | 11.11° C | 72% | 1005.2 hPa | - | - | - | - |
| 1778032697 | 11.67° C | 72% | 1005.5 hPa | - | - | - | - |
| 1778031017 | 12.22° C | 72% | 1005.5 hPa | - | - | - | - |
| 1778029337 | 12.78° C | 75% | 1005.3 hPa | - | - | - | - |
| 1778027657 | 13.33° C | 75% | 1005.3 hPa | - | - | - | - |
| 1778025977 | 13.33° C | 73% | 1004.9 hPa | - | - | - | - |
| 1778014215 | 17.78° C | 31% | 1005 hPa | - | - | - | - |
| 1778012535 | 17.78° C | 26% | 1004.7 hPa | - | - | - | - |
| 1778010855 | 18.33° C | 24% | 1004.4 hPa | - | - | - | - |
| 1778009175 | 18.89° C | 24% | 1004.4 hPa | - | - | - | - |
* Rain since midnight (hover to see other rain measurements)
** Current wind speed in m/s (hover to see current wind gust speed)